Jérusalem, Israël

17:59 IST le 05 Mars 2015 (GMT +0200)
IISRAELG2 | Change Station
CLOSE
Current Station
Stations météorologiques personnelles
Location: Givat Zeev, ISRAEL
Altitude: 2543 ft
Stations météo à proximité

Alt. 2543 ft 31.86 °N, 35.16 °E | Updated 7 minutes ago

Clear
Ciel dégagé
56.2 ° F
Paraît 56.2 ° F
N
1.0
Vent Variable Vent de SE
Gusts 3.0 mph

Aujourd'hui
Haut(e) -- | Bas -- ° F
--% Risque de précip.
Hier
Haut(e) -- | Bas -- ° F
Precip. -- pouce
6:02 AM 5:39 PM
Pleine lune, 100% visible
Pression 30.15 pouce
Visibilité 3.7 Miles terrestres
Nuages
Point de rosée 45 ° F
Humidité 66%
Précipitations pouce
Profondeur de la couche neigeuse Non disponible.
UV Non disponible.
Pollen Non disponible.
Qualité de l'air Non disponible.
Flu Activity Non disponible.
METAR OJAM 051600Z 10008KT 6000 NSC 14/01 Q1021 NOSIG

More Conditions Fewer Conditions

Pression 30.15 pouce
Visibilité 3.7 Miles terrestres
Nuages
Point de rosée 45 ° F
Humidité 66%
Précipitations pouce
Profondeur de la couche neigeuse Non disponible.
UV Non disponible.
Pollen Non disponible.
Qualité de l'air Non disponible.
Flu Activity Non disponible.
METAR OJAM 051600Z 10008KT 6000 NSC 14/01 Q1021 NOSIG

More Conditions Fewer Conditions

10-Day Weather Forecast

Almanac

Astronomie

Mar. 05, 2015 Lever Coucher
Temps réel
Crépuscule civil
Crépuscule nautique
Crépuscule astronomique
Lune
Durée de lumière visible
Longueur du jour
Tomorrow will be .
, % of the Moon is Illuminated

Extrêmes aujourd'hui

Country Highs Country Lows

Community

WunderPhotos

Upload Photos

1,802,825 Photos téléchargées !

WunderBlogs® & News

Nearby

Qualité de l'air

  Qualité de l'air Indice de la qualité de l'air Polluant
Not available.

Épaisseur de neige

Station Depth Altitude

Activité sismique

Ville Distance Mag. Time & Date
Minimum magnitude displayed is 2.5.

Températures des eaux côtières

Lieu Température

Stations météo à proximité